Elmo, Missouri
Current Conditions -  °F | °C
As of 3:35 PM on Sunday 23 Nov 2014 (Local Time) from KICL Reporting Station
Overcast Overcast  
Wind Chill: 36°   Ceiling: 4000
Heat Index: 45°   Visibility: 10mi
Dew Point: 41°   Wind: 22mph
Humidity: 87%   Direction: 340°NNW
Pressure: 29.45"   Gusts: NA
Location:  40.52°N, 95.12°W
Report Text: KICL 232135Z AUTO 34019KT 10SM OVC040 07/05 A2945 RMK AO2
Loading
Personal Weather Stations






























Interactive Weather Map New forecast layout! Learn more

10-Day Weather Forecast

Advertisements
Track Severe Weather on mobile